createdAt,value
2023-04-04T00:00:24.980Z,-2.70
2023-04-04T00:06:28.104Z,-2.80
2023-04-04T00:12:31.170Z,-2.80
2023-04-04T00:18:35.496Z,-2.90
2023-04-04T00:24:41.239Z,-2.90
2023-04-04T00:30:45.161Z,-2.90
2023-04-04T00:36:49.005Z,-2.90
2023-04-04T00:42:53.868Z,-2.90
2023-04-04T00:48:58.346Z,-2.80
2023-04-04T00:55:01.925Z,-2.70
2023-04-04T01:01:11.443Z,-2.60
2023-04-04T01:07:15.711Z,-2.50
2023-04-04T01:13:19.660Z,-2.40
2023-04-04T01:19:31.839Z,-2.40
2023-04-04T01:25:39.205Z,-2.50
2023-04-04T01:31:54.587Z,-2.60
2023-04-04T01:38:26.271Z,-2.80
2023-04-04T01:44:29.874Z,-2.90
2023-04-04T01:50:33.596Z,-3.00
2023-04-04T01:56:36.919Z,-3.10
2023-04-04T02:02:40.278Z,-3.10
2023-04-04T02:08:44.268Z,-3.20
2023-04-04T02:14:48.352Z,-3.30
2023-04-04T02:20:56.711Z,-3.30
2023-04-04T02:26:58.607Z,-3.40
2023-04-04T02:33:01.713Z,-3.50
2023-04-04T02:39:05.879Z,-3.50
2023-04-04T02:45:08.573Z,-3.50
2023-04-04T02:51:11.904Z,-3.50
2023-04-04T02:57:13.845Z,-3.60
2023-04-04T03:03:16.225Z,-3.70
2023-04-04T03:09:21.069Z,-3.70
2023-04-04T03:15:23.080Z,-3.60
2023-04-04T03:21:25.036Z,-3.60
2023-04-04T03:27:26.943Z,-3.70
2023-04-04T03:33:29.363Z,-3.80
2023-04-04T03:39:31.208Z,-3.80
2023-04-04T03:45:35.721Z,-3.70
2023-04-04T03:51:37.678Z,-3.80
2023-04-04T03:57:39.671Z,-3.80
2023-04-04T04:03:45.007Z,-3.80
2023-04-04T04:09:46.913Z,-3.90
2023-04-04T04:15:49.360Z,-4.00
2023-04-04T04:21:56.249Z,-4.00
2023-04-04T04:28:00.249Z,-4.00
2023-04-04T04:34:10.947Z,-4.00
2023-04-04T04:40:16.356Z,-4.00
2023-04-04T04:46:24.797Z,-4.10
2023-04-04T04:52:29.277Z,-4.00
2023-04-04T04:58:32.012Z,-3.90
2023-04-04T05:04:35.713Z,-3.80
2023-04-04T05:10:40.763Z,-3.70
2023-04-04T05:16:43.506Z,-3.50
2023-04-04T05:22:46.495Z,-3.30
2023-04-04T05:28:54.165Z,-3.00
2023-04-04T05:34:57.014Z,-2.80
2023-04-04T05:40:58.909Z,-2.50
2023-04-04T05:47:01.329Z,-2.10
2023-04-04T05:53:04.633Z,-1.80
2023-04-04T05:59:06.717Z,-1.40
2023-04-04T06:05:15.616Z,-1.00
2023-04-04T06:11:17.624Z,-0.70
2023-04-04T06:17:23.789Z,-0.50
2023-04-04T06:23:25.691Z,-0.20
2023-04-04T06:29:27.993Z,0.10
2023-04-04T06:35:32.933Z,0.30
2023-04-04T06:41:36.483Z,0.50
2023-04-04T06:47:38.565Z,0.70
2023-04-04T06:53:40.892Z,0.90
2023-04-04T06:59:44.988Z,1.10
2023-04-04T07:05:47.433Z,1.30
2023-04-04T07:11:49.337Z,1.50
2023-04-04T07:17:51.255Z,1.70
2023-04-04T07:23:53.731Z,1.90
2023-04-04T07:29:55.890Z,2.00
2023-04-04T07:35:57.929Z,2.20
2023-04-04T07:41:59.815Z,2.40
2023-04-04T07:48:02.139Z,2.80
2023-04-04T07:54:04.151Z,2.90
2023-04-04T08:00:10.051Z,2.80
2023-04-04T08:06:15.711Z,3.00
2023-04-04T08:12:17.565Z,3.30
2023-04-04T08:18:19.395Z,3.30
2023-04-04T08:24:22.426Z,3.30
2023-04-04T08:30:24.545Z,3.20
2023-04-04T08:36:26.351Z,3.10
2023-04-04T08:42:28.674Z,3.10
2023-04-04T08:48:31.029Z,3.10
2023-04-04T08:54:35.019Z,3.20
2023-04-04T09:00:40.578Z,3.60
2023-04-04T09:06:43.075Z,3.90
2023-04-04T09:12:47.681Z,4.10
2023-04-04T09:18:49.546Z,4.50
2023-04-04T09:24:52.534Z,5.00
2023-04-04T09:30:54.408Z,5.50
2023-04-04T09:36:57.286Z,6.10
2023-04-04T09:43:04.748Z,6.70
2023-04-04T09:49:13.173Z,6.60
2023-04-04T09:55:15.668Z,6.80
2023-04-04T10:01:20.224Z,7.20
2023-04-04T10:07:23.516Z,7.50
2023-04-04T10:13:25.945Z,7.90
2023-04-04T10:19:28.060Z,7.80
2023-04-04T10:25:31.178Z,7.70
2023-04-04T10:31:34.511Z,7.80
2023-04-04T10:37:54.009Z,7.90
2023-04-04T10:44:01.643Z,8.00
2023-04-04T10:50:13.191Z,8.10
2023-04-04T10:56:17.093Z,8.30
2023-04-04T11:02:51.889Z,8.60
2023-04-04T11:08:56.323Z,8.50
2023-04-04T11:15:10.913Z,8.50
2023-04-04T11:21:24.512Z,8.80
2023-04-04T11:27:30.606Z,9.20
2023-04-04T11:33:32.604Z,9.70
2023-04-04T11:39:34.601Z,9.70
2023-04-04T11:45:37.665Z,9.50
2023-04-04T11:51:43.455Z,9.40
2023-04-04T11:57:47.641Z,9.30
2023-04-04T12:03:50.018Z,8.60
2023-04-04T12:09:52.286Z,9.30
2023-04-04T12:15:56.289Z,9.60
2023-04-04T12:21:59.168Z,9.20
2023-04-04T12:28:03.699Z,9.10
2023-04-04T12:34:05.953Z,8.70
2023-04-04T12:40:10.529Z,9.20
2023-04-04T12:46:12.768Z,10.00
2023-04-04T12:52:22.468Z,10.70
2023-04-04T12:58:28.358Z,10.90
2023-04-04T13:04:31.637Z,10.10
2023-04-04T13:10:59.246Z,9.70
2023-04-04T13:17:06.032Z,9.30
2023-04-04T13:23:08.058Z,9.10
2023-04-04T13:29:10.035Z,9.30
2023-04-04T13:35:13.568Z,9.10
2023-04-04T13:41:15.328Z,9.40
2023-04-04T13:47:17.121Z,9.90
2023-04-04T13:53:19.293Z,10.10
2023-04-04T13:59:21.582Z,10.10
2023-04-04T14:05:23.460Z,10.10
2023-04-04T14:11:30.931Z,9.60
2023-04-04T14:17:32.979Z,9.60
2023-04-04T14:23:34.780Z,10.10
2023-04-04T14:29:36.733Z,10.40
2023-04-04T14:35:38.813Z,10.30
2023-04-04T14:41:40.879Z,10.40
2023-04-04T14:47:42.678Z,10.40
2023-04-04T14:53:44.503Z,10.10
2023-04-04T14:59:46.633Z,9.80
2023-04-04T15:05:49.066Z,9.60
2023-04-04T15:11:52.229Z,9.80
2023-04-04T15:17:54.061Z,10.00
2023-04-04T15:23:56.139Z,9.70
2023-04-04T15:29:57.993Z,9.60
2023-04-04T15:35:59.810Z,9.20
2023-04-04T15:42:02.128Z,9.00
2023-04-04T15:48:04.150Z,9.00
2023-04-04T15:54:06.055Z,9.10
2023-04-04T16:00:08.472Z,8.90
2023-04-04T16:06:13.050Z,9.60
2023-04-04T16:12:14.883Z,10.70
2023-04-04T16:18:16.680Z,11.80
2023-04-04T16:24:18.681Z,12.30
2023-04-04T16:30:20.591Z,12.80
2023-04-04T16:36:22.774Z,12.30
2023-04-04T16:42:24.762Z,11.40
2023-04-04T16:48:26.596Z,9.40
2023-04-04T16:54:28.511Z,8.10
2023-04-04T17:00:30.366Z,7.30
2023-04-04T17:06:33.358Z,6.80
2023-04-04T17:12:35.275Z,6.40
2023-04-04T17:18:37.054Z,6.20
2023-04-04T17:24:38.798Z,5.90
2023-04-04T17:30:41.505Z,5.80
2023-04-04T17:36:43.931Z,5.60
2023-04-04T17:42:46.058Z,5.30
2023-04-04T17:48:48.101Z,5.10
2023-04-04T17:54:52.078Z,4.90
2023-04-04T18:00:55.838Z,4.50
2023-04-04T18:06:57.904Z,4.40
2023-04-04T18:12:59.806Z,4.40
2023-04-04T18:19:02.962Z,4.50
2023-04-04T18:25:06.504Z,4.30
2023-04-04T18:31:11.831Z,4.30
2023-04-04T18:37:15.722Z,4.00
2023-04-04T18:43:20.221Z,3.90
2023-04-04T18:49:23.728Z,3.60
2023-04-04T18:55:26.667Z,3.30
2023-04-04T19:01:31.732Z,3.20
2023-04-04T19:07:36.915Z,3.00
2023-04-04T19:13:40.145Z,2.90
2023-04-04T19:19:44.084Z,2.70
2023-04-04T19:25:49.233Z,2.60
2023-04-04T19:31:55.286Z,2.50
2023-04-04T19:38:01.003Z,2.50
2023-04-04T19:44:07.690Z,2.40
2023-04-04T19:50:34.561Z,2.40
2023-04-04T19:56:37.885Z,2.40
2023-04-04T20:02:43.706Z,2.40
2023-04-04T20:08:53.946Z,2.40
2023-04-04T20:15:01.792Z,2.40
2023-04-04T20:21:19.418Z,2.40
2023-04-04T20:27:28.785Z,2.40
2023-04-04T20:33:43.094Z,2.30
2023-04-04T20:39:58.057Z,2.30
2023-04-04T20:46:04.582Z,2.20
2023-04-04T20:52:07.525Z,2.10
2023-04-04T20:58:19.831Z,2.10
2023-04-04T21:04:26.468Z,2.10
2023-04-04T21:10:28.615Z,1.90
2023-04-04T21:16:30.827Z,1.80
2023-04-04T21:22:32.726Z,1.70
2023-04-04T21:28:41.962Z,1.60
2023-04-04T21:34:43.741Z,1.80
2023-04-04T21:40:45.605Z,1.80
2023-04-04T21:46:47.576Z,1.60
2023-04-04T21:52:49.471Z,1.50
2023-04-04T21:58:51.267Z,1.30
2023-04-04T22:04:53.251Z,1.20
2023-04-04T22:11:01.864Z,1.00
2023-04-04T22:17:05.374Z,0.90
2023-04-04T22:23:07.354Z,0.80
2023-04-04T22:29:09.225Z,0.50
2023-04-04T22:35:12.364Z,0.30
2023-04-04T22:41:14.240Z,0.10
2023-04-04T22:47:16.161Z,0.00
2023-04-04T22:53:24.688Z,-0.10
2023-04-04T22:59:26.715Z,-0.20
2023-04-04T23:05:29.392Z,-0.20
2023-04-04T23:11:31.367Z,-0.30
2023-04-04T23:17:34.388Z,-0.30
2023-04-04T23:23:36.634Z,-0.40
2023-04-04T23:29:38.839Z,-0.60
2023-04-04T23:35:40.603Z,-0.90
2023-04-04T23:41:42.438Z,-1.00
2023-04-04T23:47:44.363Z,-1.20
2023-04-04T23:53:46.161Z,-1.40
2023-04-04T23:59:48.013Z,-1.40
